sensor_id;sensor_type;location;lat;lon;timestamp;temperature;humidity
18426;DHT22;9340;48.756;9.226;2023-12-29T00:02:11;9.40;99.90
18426;DHT22;9340;48.756;9.226;2023-12-29T00:04:37;9.50;99.90
18426;DHT22;9340;48.756;9.226;2023-12-29T00:07:04;9.60;99.90
18426;DHT22;9340;48.756;9.226;2023-12-29T00:09:31;9.60;99.90
18426;DHT22;9340;48.756;9.226;2023-12-29T00:12:04;9.60;99.90
18426;DHT22;9340;48.756;9.226;2023-12-29T00:14:30;9.70;99.90
18426;DHT22;9340;48.756;9.226;2023-12-29T00:16:58;9.70;99.90
18426;DHT22;9340;48.756;9.226;2023-12-29T00:19:25;9.80;99.90
18426;DHT22;9340;48.756;9.226;2023-12-29T00:21:52;9.90;99.90
18426;DHT22;9340;48.756;9.226;2023-12-29T00:24:19;9.90;99.90
18426;DHT22;9340;48.756;9.226;2023-12-29T00:26:45;9.90;99.90
18426;DHT22;9340;48.756;9.226;2023-12-29T00:29:13;9.90;99.90
18426;DHT22;9340;48.756;9.226;2023-12-29T00:31:40;9.80;99.90
18426;DHT22;9340;48.756;9.226;2023-12-29T00:34:08;9.80;99.90
18426;DHT22;9340;48.756;9.226;2023-12-29T00:36:35;9.80;99.90
18426;DHT22;9340;48.756;9.226;2023-12-29T00:39:02;9.70;99.90
18426;DHT22;9340;48.756;9.226;2023-12-29T00:41:28;9.60;99.90
18426;DHT22;9340;48.756;9.226;2023-12-29T00:43:55;9.50;99.90
18426;DHT22;9340;48.756;9.226;2023-12-29T00:46:22;9.30;99.90
18426;DHT22;9340;48.756;9.226;2023-12-29T00:48:48;9.30;99.90
18426;DHT22;9340;48.756;9.226;2023-12-29T00:51:16;9.30;99.90
18426;DHT22;9340;48.756;9.226;2023-12-29T00:53:43;9.30;99.90
18426;DHT22;9340;48.756;9.226;2023-12-29T00:56:10;9.30;99.90
18426;DHT22;9340;48.756;9.226;2023-12-29T00:58:37;9.40;99.90
18426;DHT22;9340;48.756;9.226;2023-12-29T01:01:06;9.50;99.90
18426;DHT22;9340;48.756;9.226;2023-12-29T01:03:33;9.60;99.90
18426;DHT22;9340;48.756;9.226;2023-12-29T01:06:00;9.60;99.90
18426;DHT22;9340;48.756;9.226;2023-12-29T01:08:28;9.60;99.90
18426;DHT22;9340;48.756;9.226;2023-12-29T01:10:54;9.60;99.90
18426;DHT22;9340;48.756;9.226;2023-12-29T01:13:21;9.70;99.90
18426;DHT22;9340;48.756;9.226;2023-12-29T01:15:48;9.70;99.90
18426;DHT22;9340;48.756;9.226;2023-12-29T01:18:14;9.80;99.90
18426;DHT22;9340;48.756;9.226;2023-12-29T01:20:41;9.80;99.90
18426;DHT22;9340;48.756;9.226;2023-12-29T01:23:08;9.80;99.90
18426;DHT22;9340;48.756;9.226;2023-12-29T01:25:36;9.80;99.90
18426;DHT22;9340;48.756;9.226;2023-12-29T01:28:03;9.80;99.90
18426;DHT22;9340;48.756;9.226;2023-12-29T01:30:30;9.80;99.90
18426;DHT22;9340;48.756;9.226;2023-12-29T01:32:56;9.70;99.90
18426;DHT22;9340;48.756;9.226;2023-12-29T01:35:23;9.70;99.90
18426;DHT22;9340;48.756;9.226;2023-12-29T01:37:50;9.60;99.90
18426;DHT22;9340;48.756;9.226;2023-12-29T01:40:16;9.50;99.90
18426;DHT22;9340;48.756;9.226;2023-12-29T01:42:44;9.50;99.90
18426;DHT22;9340;48.756;9.226;2023-12-29T01:45:20;9.50;99.90
18426;DHT22;9340;48.756;9.226;2023-12-29T01:47:47;9.50;99.90
18426;DHT22;9340;48.756;9.226;2023-12-29T01:50:14;9.70;99.90
18426;DHT22;9340;48.756;9.226;2023-12-29T01:52:42;9.80;99.90
18426;DHT22;9340;48.756;9.226;2023-12-29T01:55:12;9.90;99.90
18426;DHT22;9340;48.756;9.226;2023-12-29T01:57:41;9.90;99.90
18426;DHT22;9340;48.756;9.226;2023-12-29T02:00:12;9.90;99.90
18426;DHT22;9340;48.756;9.226;2023-12-29T02:02:39;9.90;99.90
18426;DHT22;9340;48.756;9.226;2023-12-29T02:05:06;9.90;99.90
18426;DHT22;9340;48.756;9.226;2023-12-29T02:07:33;10.00;99.90
18426;DHT22;9340;48.756;9.226;2023-12-29T02:10:00;9.90;99.90
18426;DHT22;9340;48.756;9.226;2023-12-29T02:12:28;10.00;99.90
18426;DHT22;9340;48.756;9.226;2023-12-29T02:14:55;10.00;99.90
18426;DHT22;9340;48.756;9.226;2023-12-29T02:17:27;10.00;99.90
18426;DHT22;9340;48.756;9.226;2023-12-29T02:19:55;9.90;99.90
18426;DHT22;9340;48.756;9.226;2023-12-29T02:22:21;10.00;99.90
18426;DHT22;9340;48.756;9.226;2023-12-29T02:24:51;10.00;99.90
18426;DHT22;9340;48.756;9.226;2023-12-29T02:27:27;10.00;99.90
18426;DHT22;9340;48.756;9.226;2023-12-29T02:30:08;10.00;99.90
18426;DHT22;9340;48.756;9.226;2023-12-29T02:32:37;10.10;99.90
18426;DHT22;9340;48.756;9.226;2023-12-29T02:35:05;10.10;99.90
18426;DHT22;9340;48.756;9.226;2023-12-29T02:37:34;10.20;99.90
18426;DHT22;9340;48.756;9.226;2023-12-29T02:40:05;10.20;99.90
18426;DHT22;9340;48.756;9.226;2023-12-29T02:42:31;10.20;99.90
18426;DHT22;9340;48.756;9.226;2023-12-29T02:44:58;10.20;99.90
18426;DHT22;9340;48.756;9.226;2023-12-29T02:47:25;10.30;99.90
18426;DHT22;9340;48.756;9.226;2023-12-29T02:49:52;10.30;99.90
18426;DHT22;9340;48.756;9.226;2023-12-29T02:52:20;10.30;99.90
18426;DHT22;9340;48.756;9.226;2023-12-29T02:54:46;10.30;99.90
18426;DHT22;9340;48.756;9.226;2023-12-29T02:57:14;10.30;99.90
18426;DHT22;9340;48.756;9.226;2023-12-29T02:59:41;10.20;99.90
18426;DHT22;9340;48.756;9.226;2023-12-29T03:02:07;10.20;99.90
18426;DHT22;9340;48.756;9.226;2023-12-29T03:04:34;10.10;99.90
18426;DHT22;9340;48.756;9.226;2023-12-29T03:07:01;10.10;99.90
18426;DHT22;9340;48.756;9.226;2023-12-29T03:09:27;10.10;99.90
18426;DHT22;9340;48.756;9.226;2023-12-29T03:11:54;10.10;99.90
18426;DHT22;9340;48.756;9.226;2023-12-29T03:14:22;10.10;99.90
18426;DHT22;9340;48.756;9.226;2023-12-29T03:16:48;10.10;99.90
18426;DHT22;9340;48.756;9.226;2023-12-29T03:19:15;10.00;99.90
18426;DHT22;9340;48.756;9.226;2023-12-29T03:21:42;10.00;99.90
18426;DHT22;9340;48.756;9.226;2023-12-29T03:24:08;10.00;99.90
18426;DHT22;9340;48.756;9.226;2023-12-29T03:26:35;9.90;99.90
18426;DHT22;9340;48.756;9.226;2023-12-29T03:29:02;9.90;99.90
18426;DHT22;9340;48.756;9.226;2023-12-29T03:31:30;10.00;99.90
18426;DHT22;9340;48.756;9.226;2023-12-29T03:33:56;9.90;99.90
18426;DHT22;9340;48.756;9.226;2023-12-29T03:36:23;9.80;99.90
18426;DHT22;9340;48.756;9.226;2023-12-29T03:38:50;9.80;99.90
18426;DHT22;9340;48.756;9.226;2023-12-29T03:41:16;9.70;99.90
18426;DHT22;9340;48.756;9.226;2023-12-29T03:43:44;9.60;99.90
18426;DHT22;9340;48.756;9.226;2023-12-29T03:46:17;9.50;99.90
18426;DHT22;9340;48.756;9.226;2023-12-29T03:48:45;9.50;99.90
18426;DHT22;9340;48.756;9.226;2023-12-29T03:51:12;9.40;99.90
18426;DHT22;9340;48.756;9.226;2023-12-29T03:53:39;9.30;99.90
18426;DHT22;9340;48.756;9.226;2023-12-29T03:56:07;9.30;99.90
18426;DHT22;9340;48.756;9.226;2023-12-29T03:58:34;9.30;99.90
18426;DHT22;9340;48.756;9.226;2023-12-29T04:01:01;9.20;99.90
18426;DHT22;9340;48.756;9.226;2023-12-29T04:03:28;9.10;99.90
18426;DHT22;9340;48.756;9.226;2023-12-29T04:05:56;9.10;99.90
18426;DHT22;9340;48.756;9.226;2023-12-29T04:08:22;9.00;99.90
18426;DHT22;9340;48.756;9.226;2023-12-29T04:10:49;9.00;99.90
18426;DHT22;9340;48.756;9.226;2023-12-29T04:13:15;9.00;99.90
18426;DHT22;9340;48.756;9.226;2023-12-29T04:15:42;9.00;99.90
18426;DHT22;9340;48.756;9.226;2023-12-29T04:18:09;9.00;99.90
18426;DHT22;9340;48.756;9.226;2023-12-29T04:20:35;9.00;99.90
18426;DHT22;9340;48.756;9.226;2023-12-29T04:23:05;8.90;99.90
18426;DHT22;9340;48.756;9.226;2023-12-29T04:25:32;8.90;99.90
18426;DHT22;9340;48.756;9.226;2023-12-29T04:27:59;8.80;99.90
18426;DHT22;9340;48.756;9.226;2023-12-29T04:30:25;8.80;99.90
18426;DHT22;9340;48.756;9.226;2023-12-29T04:32:52;8.80;99.90
18426;DHT22;9340;48.756;9.226;2023-12-29T04:35:19;8.90;99.90
18426;DHT22;9340;48.756;9.226;2023-12-29T04:37:45;9.00;99.90
18426;DHT22;9340;48.756;9.226;2023-12-29T04:40:14;9.00;99.90
18426;DHT22;9340;48.756;9.226;2023-12-29T04:42:40;9.00;99.90
18426;DHT22;9340;48.756;9.226;2023-12-29T04:45:07;9.00;99.90
18426;DHT22;9340;48.756;9.226;2023-12-29T04:47:35;9.00;99.90
18426;DHT22;9340;48.756;9.226;2023-12-29T04:50:02;9.00;99.90
18426;DHT22;9340;48.756;9.226;2023-12-29T04:52:29;9.00;99.90
18426;DHT22;9340;48.756;9.226;2023-12-29T04:54:55;9.00;99.90
18426;DHT22;9340;48.756;9.226;2023-12-29T04:57:23;9.00;99.90
18426;DHT22;9340;48.756;9.226;2023-12-29T04:59:50;9.10;99.90
18426;DHT22;9340;48.756;9.226;2023-12-29T05:02:17;9.20;99.90
18426;DHT22;9340;48.756;9.226;2023-12-29T05:04:45;9.20;99.90
18426;DHT22;9340;48.756;9.226;2023-12-29T05:07:11;9.20;99.90
18426;DHT22;9340;48.756;9.226;2023-12-29T05:09:38;9.20;99.90
18426;DHT22;9340;48.756;9.226;2023-12-29T05:12:05;9.20;99.90
18426;DHT22;9340;48.756;9.226;2023-12-29T05:14:33;9.20;99.90
18426;DHT22;9340;48.756;9.226;2023-12-29T05:17:00;9.20;99.90
18426;DHT22;9340;48.756;9.226;2023-12-29T05:19:26;9.20;99.90
18426;DHT22;9340;48.756;9.226;2023-12-29T05:21:53;9.30;99.90
18426;DHT22;9340;48.756;9.226;2023-12-29T05:24:20;9.30;99.90
18426;DHT22;9340;48.756;9.226;2023-12-29T05:26:46;9.40;99.90
18426;DHT22;9340;48.756;9.226;2023-12-29T05:29:14;9.40;99.90
18426;DHT22;9340;48.756;9.226;2023-12-29T05:31:42;9.40;99.90
18426;DHT22;9340;48.756;9.226;2023-12-29T05:34:09;9.40;99.90
18426;DHT22;9340;48.756;9.226;2023-12-29T05:36:35;9.40;99.90
18426;DHT22;9340;48.756;9.226;2023-12-29T05:39:02;9.50;99.90
18426;DHT22;9340;48.756;9.226;2023-12-29T05:41:29;9.40;99.90
18426;DHT22;9340;48.756;9.226;2023-12-29T05:43:56;9.40;99.90
18426;DHT22;9340;48.756;9.226;2023-12-29T05:46:23;9.50;99.90
18426;DHT22;9340;48.756;9.226;2023-12-29T05:48:51;9.50;99.90
18426;DHT22;9340;48.756;9.226;2023-12-29T05:51:18;9.50;99.90
18426;DHT22;9340;48.756;9.226;2023-12-29T05:53:45;9.40;99.90
18426;DHT22;9340;48.756;9.226;2023-12-29T05:56:12;9.30;99.90
18426;DHT22;9340;48.756;9.226;2023-12-29T05:58:40;9.30;99.90
18426;DHT22;9340;48.756;9.226;2023-12-29T06:01:07;9.30;99.90
18426;DHT22;9340;48.756;9.226;2023-12-29T06:03:33;9.20;99.90
18426;DHT22;9340;48.756;9.226;2023-12-29T06:06:01;9.20;99.90
18426;DHT22;9340;48.756;9.226;2023-12-29T06:08:28;9.20;99.90
18426;DHT22;9340;48.756;9.226;2023-12-29T06:10:55;9.10;99.90
18426;DHT22;9340;48.756;9.226;2023-12-29T06:13:22;9.10;99.90
18426;DHT22;9340;48.756;9.226;2023-12-29T06:15:49;9.10;99.90
18426;DHT22;9340;48.756;9.226;2023-12-29T06:18:15;9.10;99.90
18426;DHT22;9340;48.756;9.226;2023-12-29T06:20:42;9.00;99.90
18426;DHT22;9340;48.756;9.226;2023-12-29T06:23:10;9.10;99.90
18426;DHT22;9340;48.756;9.226;2023-12-29T06:25:37;9.10;99.90
18426;DHT22;9340;48.756;9.226;2023-12-29T06:28:05;9.20;99.90
18426;DHT22;9340;48.756;9.226;2023-12-29T06:30:32;9.20;99.90
18426;DHT22;9340;48.756;9.226;2023-12-29T06:32:58;9.20;99.90
18426;DHT22;9340;48.756;9.226;2023-12-29T06:35:25;9.10;99.90
18426;DHT22;9340;48.756;9.226;2023-12-29T06:37:52;9.10;99.90
18426;DHT22;9340;48.756;9.226;2023-12-29T06:40:20;9.00;99.90
18426;DHT22;9340;48.756;9.226;2023-12-29T06:42:46;9.00;99.90
18426;DHT22;9340;48.756;9.226;2023-12-29T06:45:13;9.00;99.90
18426;DHT22;9340;48.756;9.226;2023-12-29T06:47:40;9.10;99.90
18426;DHT22;9340;48.756;9.226;2023-12-29T06:50:07;9.10;99.90
18426;DHT22;9340;48.756;9.226;2023-12-29T06:52:38;9.10;99.90
18426;DHT22;9340;48.756;9.226;2023-12-29T06:55:05;9.00;99.90
18426;DHT22;9340;48.756;9.226;2023-12-29T06:57:33;9.00;99.90
18426;DHT22;9340;48.756;9.226;2023-12-29T07:00:00;8.90;99.90
18426;DHT22;9340;48.756;9.226;2023-12-29T07:02:26;8.90;99.90
18426;DHT22;9340;48.756;9.226;2023-12-29T07:04:53;8.90;99.90
18426;DHT22;9340;48.756;9.226;2023-12-29T07:07:20;8.90;99.90
18426;DHT22;9340;48.756;9.226;2023-12-29T07:09:46;8.90;99.90
18426;DHT22;9340;48.756;9.226;2023-12-29T07:12:13;9.00;99.90
18426;DHT22;9340;48.756;9.226;2023-12-29T07:14:42;9.10;99.90
18426;DHT22;9340;48.756;9.226;2023-12-29T07:17:09;9.10;99.90
18426;DHT22;9340;48.756;9.226;2023-12-29T07:19:35;9.10;99.90
18426;DHT22;9340;48.756;9.226;2023-12-29T07:22:03;9.10;99.90
18426;DHT22;9340;48.756;9.226;2023-12-29T07:24:31;9.10;99.90
18426;DHT22;9340;48.756;9.226;2023-12-29T07:26:58;9.20;99.90
18426;DHT22;9340;48.756;9.226;2023-12-29T07:29:25;9.20;99.90
18426;DHT22;9340;48.756;9.226;2023-12-29T07:31:53;9.30;99.90
18426;DHT22;9340;48.756;9.226;2023-12-29T07:34:20;9.30;99.90
18426;DHT22;9340;48.756;9.226;2023-12-29T07:36:47;9.30;99.90
18426;DHT22;9340;48.756;9.226;2023-12-29T07:39:13;9.20;99.90
18426;DHT22;9340;48.756;9.226;2023-12-29T07:41:40;9.30;99.90
18426;DHT22;9340;48.756;9.226;2023-12-29T07:44:07;9.20;99.90
18426;DHT22;9340;48.756;9.226;2023-12-29T07:46:34;9.20;99.90
18426;DHT22;9340;48.756;9.226;2023-12-29T07:49:02;9.30;99.90
18426;DHT22;9340;48.756;9.226;2023-12-29T07:51:29;9.40;99.90
18426;DHT22;9340;48.756;9.226;2023-12-29T07:53:56;9.50;99.90
18426;DHT22;9340;48.756;9.226;2023-12-29T07:56:23;9.70;99.90
18426;DHT22;9340;48.756;9.226;2023-12-29T07:58:50;9.80;99.90
18426;DHT22;9340;48.756;9.226;2023-12-29T08:01:16;9.90;99.90
18426;DHT22;9340;48.756;9.226;2023-12-29T08:03:43;10.00;99.90
18426;DHT22;9340;48.756;9.226;2023-12-29T08:06:12;10.00;99.90
18426;DHT22;9340;48.756;9.226;2023-12-29T08:08:39;10.00;99.90
18426;DHT22;9340;48.756;9.226;2023-12-29T08:11:05;10.10;99.90
18426;DHT22;9340;48.756;9.226;2023-12-29T08:13:32;10.20;99.90
18426;DHT22;9340;48.756;9.226;2023-12-29T08:15:58;10.30;99.90
18426;DHT22;9340;48.756;9.226;2023-12-29T08:18:25;10.40;99.90
18426;DHT22;9340;48.756;9.226;2023-12-29T08:20:53;10.50;99.90
18426;DHT22;9340;48.756;9.226;2023-12-29T08:23:21;10.50;99.90
18426;DHT22;9340;48.756;9.226;2023-12-29T08:25:48;10.60;99.90
18426;DHT22;9340;48.756;9.226;2023-12-29T08:28:15;10.50;99.90
18426;DHT22;9340;48.756;9.226;2023-12-29T08:30:42;10.60;99.90
18426;DHT22;9340;48.756;9.226;2023-12-29T08:33:11;10.70;99.90
18426;DHT22;9340;48.756;9.226;2023-12-29T08:35:39;10.70;99.90
18426;DHT22;9340;48.756;9.226;2023-12-29T08:38:06;10.70;99.90
18426;DHT22;9340;48.756;9.226;2023-12-29T08:40:34;10.70;99.90
18426;DHT22;9340;48.756;9.226;2023-12-29T08:43:01;10.80;99.90
18426;DHT22;9340;48.756;9.226;2023-12-29T08:45:28;10.70;99.90
18426;DHT22;9340;48.756;9.226;2023-12-29T08:47:55;10.80;99.90
18426;DHT22;9340;48.756;9.226;2023-12-29T08:50:21;10.90;99.90
18426;DHT22;9340;48.756;9.226;2023-12-29T08:52:48;10.90;99.90
18426;DHT22;9340;48.756;9.226;2023-12-29T08:55:15;10.80;99.90
18426;DHT22;9340;48.756;9.226;2023-12-29T08:57:42;10.90;99.90
18426;DHT22;9340;48.756;9.226;2023-12-29T09:00:10;11.00;99.90
18426;DHT22;9340;48.756;9.226;2023-12-29T09:02:37;11.00;99.90
18426;DHT22;9340;48.756;9.226;2023-12-29T09:05:04;11.00;99.90
18426;DHT22;9340;48.756;9.226;2023-12-29T09:07:32;10.90;99.90
18426;DHT22;9340;48.756;9.226;2023-12-29T09:09:59;10.90;99.90
18426;DHT22;9340;48.756;9.226;2023-12-29T09:12:27;10.80;99.90
18426;DHT22;9340;48.756;9.226;2023-12-29T09:14:55;10.70;99.90
18426;DHT22;9340;48.756;9.226;2023-12-29T09:17:22;10.80;99.90
18426;DHT22;9340;48.756;9.226;2023-12-29T09:19:48;10.90;99.90
18426;DHT22;9340;48.756;9.226;2023-12-29T09:22:15;11.00;99.90
18426;DHT22;9340;48.756;9.226;2023-12-29T09:24:42;11.10;99.90
18426;DHT22;9340;48.756;9.226;2023-12-29T09:27:08;11.20;99.90
18426;DHT22;9340;48.756;9.226;2023-12-29T09:29:36;11.30;99.90
18426;DHT22;9340;48.756;9.226;2023-12-29T09:32:04;11.50;99.90
18426;DHT22;9340;48.756;9.226;2023-12-29T09:34:31;11.70;99.90
18426;DHT22;9340;48.756;9.226;2023-12-29T09:36:58;11.70;99.90
18426;DHT22;9340;48.756;9.226;2023-12-29T09:39:25;11.70;99.90
18426;DHT22;9340;48.756;9.226;2023-12-29T09:41:52;11.60;99.90
18426;DHT22;9340;48.756;9.226;2023-12-29T09:44:21;11.50;99.90
18426;DHT22;9340;48.756;9.226;2023-12-29T09:46:50;11.30;99.90
18426;DHT22;9340;48.756;9.226;2023-12-29T09:49:18;11.30;99.90
18426;DHT22;9340;48.756;9.226;2023-12-29T09:51:45;11.30;99.90
18426;DHT22;9340;48.756;9.226;2023-12-29T09:54:13;11.20;99.90
18426;DHT22;9340;48.756;9.226;2023-12-29T09:56:41;11.20;99.90
18426;DHT22;9340;48.756;9.226;2023-12-29T09:59:09;11.10;99.90
18426;DHT22;9340;48.756;9.226;2023-12-29T10:01:37;11.10;99.90
18426;DHT22;9340;48.756;9.226;2023-12-29T10:04:04;11.10;99.90
18426;DHT22;9340;48.756;9.226;2023-12-29T10:06:36;11.10;99.90
18426;DHT22;9340;48.756;9.226;2023-12-29T10:09:07;11.00;99.90
18426;DHT22;9340;48.756;9.226;2023-12-29T10:11:37;11.00;99.90
18426;DHT22;9340;48.756;9.226;2023-12-29T10:14:14;11.00;99.90
18426;DHT22;9340;48.756;9.226;2023-12-29T10:16:45;11.00;99.90
18426;DHT22;9340;48.756;9.226;2023-12-29T10:19:23;11.00;99.90
18426;DHT22;9340;48.756;9.226;2023-12-29T10:21:59;10.90;99.90
18426;DHT22;9340;48.756;9.226;2023-12-29T10:24:29;10.90;99.90
18426;DHT22;9340;48.756;9.226;2023-12-29T10:26:56;11.00;99.90
18426;DHT22;9340;48.756;9.226;2023-12-29T10:29:23;11.00;99.90
18426;DHT22;9340;48.756;9.226;2023-12-29T10:31:50;11.00;99.90
18426;DHT22;9340;48.756;9.226;2023-12-29T10:34:17;10.90;99.90
18426;DHT22;9340;48.756;9.226;2023-12-29T10:36:47;10.90;99.90
18426;DHT22;9340;48.756;9.226;2023-12-29T10:39:16;11.00;99.90
18426;DHT22;9340;48.756;9.226;2023-12-29T10:41:42;11.10;99.90
18426;DHT22;9340;48.756;9.226;2023-12-29T10:44:09;11.30;99.90
18426;DHT22;9340;48.756;9.226;2023-12-29T10:46:36;11.40;99.90
18426;DHT22;9340;48.756;9.226;2023-12-29T10:49:07;11.50;99.90
18426;DHT22;9340;48.756;9.226;2023-12-29T10:51:35;11.60;99.90
18426;DHT22;9340;48.756;9.226;2023-12-29T10:54:02;11.70;99.90
18426;DHT22;9340;48.756;9.226;2023-12-29T10:56:31;11.70;99.90
18426;DHT22;9340;48.756;9.226;2023-12-29T10:58:59;11.90;99.90
18426;DHT22;9340;48.756;9.226;2023-12-29T11:01:28;11.90;99.90
18426;DHT22;9340;48.756;9.226;2023-12-29T11:03:59;12.00;99.90
18426;DHT22;9340;48.756;9.226;2023-12-29T11:06:27;12.00;99.90
18426;DHT22;9340;48.756;9.226;2023-12-29T11:08:54;12.10;99.90
18426;DHT22;9340;48.756;9.226;2023-12-29T11:11:21;12.20;99.90
18426;DHT22;9340;48.756;9.226;2023-12-29T11:13:50;12.20;99.90
18426;DHT22;9340;48.756;9.226;2023-12-29T11:16:17;12.20;99.90
18426;DHT22;9340;48.756;9.226;2023-12-29T11:18:47;12.30;99.90
18426;DHT22;9340;48.756;9.226;2023-12-29T11:21:16;12.30;99.90
18426;DHT22;9340;48.756;9.226;2023-12-29T11:23:43;12.30;99.90
18426;DHT22;9340;48.756;9.226;2023-12-29T11:26:10;12.40;99.90
18426;DHT22;9340;48.756;9.226;2023-12-29T11:28:37;12.40;99.90
18426;DHT22;9340;48.756;9.226;2023-12-29T11:31:05;12.50;99.90
18426;DHT22;9340;48.756;9.226;2023-12-29T11:33:38;12.50;99.90
18426;DHT22;9340;48.756;9.226;2023-12-29T11:36:11;12.50;99.90
18426;DHT22;9340;48.756;9.226;2023-12-29T11:38:48;12.50;99.90
18426;DHT22;9340;48.756;9.226;2023-12-29T11:41:21;12.50;99.90
18426;DHT22;9340;48.756;9.226;2023-12-29T11:43:58;12.30;99.90
18426;DHT22;9340;48.756;9.226;2023-12-29T11:46:34;12.40;99.90
18426;DHT22;9340;48.756;9.226;2023-12-29T11:49:01;12.40;99.90
18426;DHT22;9340;48.756;9.226;2023-12-29T11:51:34;12.50;99.90
18426;DHT22;9340;48.756;9.226;2023-12-29T11:54:02;12.50;99.90
18426;DHT22;9340;48.756;9.226;2023-12-29T11:56:38;12.40;99.90
18426;DHT22;9340;48.756;9.226;2023-12-29T11:59:19;12.50;99.90
18426;DHT22;9340;48.756;9.226;2023-12-29T12:01:51;12.50;99.90
18426;DHT22;9340;48.756;9.226;2023-12-29T12:04:36;12.50;99.90
18426;DHT22;9340;48.756;9.226;2023-12-29T12:07:05;12.60;99.90
18426;DHT22;9340;48.756;9.226;2023-12-29T12:09:33;12.60;99.90
18426;DHT22;9340;48.756;9.226;2023-12-29T12:12:00;12.60;99.90
18426;DHT22;9340;48.756;9.226;2023-12-29T12:14:45;12.70;99.90
18426;DHT22;9340;48.756;9.226;2023-12-29T12:17:26;12.60;99.90
18426;DHT22;9340;48.756;9.226;2023-12-29T12:19:57;12.60;99.90
18426;DHT22;9340;48.756;9.226;2023-12-29T12:22:24;12.60;99.90
18426;DHT22;9340;48.756;9.226;2023-12-29T12:24:55;12.60;99.90
18426;DHT22;9340;48.756;9.226;2023-12-29T12:27:22;12.60;99.90
18426;DHT22;9340;48.756;9.226;2023-12-29T12:29:55;12.70;99.90
18426;DHT22;9340;48.756;9.226;2023-12-29T12:32:25;12.60;99.90
18426;DHT22;9340;48.756;9.226;2023-12-29T12:34:51;12.60;99.90
18426;DHT22;9340;48.756;9.226;2023-12-29T12:37:22;12.60;99.90
18426;DHT22;9340;48.756;9.226;2023-12-29T12:39:49;12.80;99.90
18426;DHT22;9340;48.756;9.226;2023-12-29T12:42:16;12.80;99.90
18426;DHT22;9340;48.756;9.226;2023-12-29T12:44:48;12.80;99.90
18426;DHT22;9340;48.756;9.226;2023-12-29T12:47:19;12.80;99.90
18426;DHT22;9340;48.756;9.226;2023-12-29T12:49:50;12.80;99.90
18426;DHT22;9340;48.756;9.226;2023-12-29T12:52:18;13.00;99.90
18426;DHT22;9340;48.756;9.226;2023-12-29T12:54:45;13.00;99.90
18426;DHT22;9340;48.756;9.226;2023-12-29T12:57:12;13.10;99.90
18426;DHT22;9340;48.756;9.226;2023-12-29T12:59:39;13.20;99.90
18426;DHT22;9340;48.756;9.226;2023-12-29T13:02:08;13.20;99.90
18426;DHT22;9340;48.756;9.226;2023-12-29T13:04:35;13.30;99.90
18426;DHT22;9340;48.756;9.226;2023-12-29T13:07:03;13.40;99.90
18426;DHT22;9340;48.756;9.226;2023-12-29T13:09:31;13.60;99.90
18426;DHT22;9340;48.756;9.226;2023-12-29T13:12:08;13.70;99.90
18426;DHT22;9340;48.756;9.226;2023-12-29T13:14:34;13.80;99.90
18426;DHT22;9340;48.756;9.226;2023-12-29T13:17:06;13.90;99.90
18426;DHT22;9340;48.756;9.226;2023-12-29T13:19:32;13.90;99.90
18426;DHT22;9340;48.756;9.226;2023-12-29T13:22:00;14.00;99.90
18426;DHT22;9340;48.756;9.226;2023-12-29T13:24:28;13.90;99.90
18426;DHT22;9340;48.756;9.226;2023-12-29T13:26:57;13.80;99.90
18426;DHT22;9340;48.756;9.226;2023-12-29T13:29:26;13.70;99.90
18426;DHT22;9340;48.756;9.226;2023-12-29T13:31:58;13.70;99.90
18426;DHT22;9340;48.756;9.226;2023-12-29T13:34:30;13.70;99.90
18426;DHT22;9340;48.756;9.226;2023-12-29T13:37:01;13.60;99.90
18426;DHT22;9340;48.756;9.226;2023-12-29T13:39:36;13.50;99.90
18426;DHT22;9340;48.756;9.226;2023-12-29T13:42:05;13.40;99.90
18426;DHT22;9340;48.756;9.226;2023-12-29T13:44:33;13.40;99.90
18426;DHT22;9340;48.756;9.226;2023-12-29T13:47:01;13.40;99.90
18426;DHT22;9340;48.756;9.226;2023-12-29T13:49:28;13.30;99.90
18426;DHT22;9340;48.756;9.226;2023-12-29T13:51:54;13.30;99.90
18426;DHT22;9340;48.756;9.226;2023-12-29T13:54:25;13.20;99.90
18426;DHT22;9340;48.756;9.226;2023-12-29T13:56:53;13.20;99.90
18426;DHT22;9340;48.756;9.226;2023-12-29T13:59:29;13.20;99.90
18426;DHT22;9340;48.756;9.226;2023-12-29T14:01:58;13.20;99.90
18426;DHT22;9340;48.756;9.226;2023-12-29T14:04:25;13.20;99.90
18426;DHT22;9340;48.756;9.226;2023-12-29T14:06:55;13.10;99.90
18426;DHT22;9340;48.756;9.226;2023-12-29T14:09:25;13.10;99.90
18426;DHT22;9340;48.756;9.226;2023-12-29T14:11:53;13.10;99.90
18426;DHT22;9340;48.756;9.226;2023-12-29T14:14:23;13.10;99.90
18426;DHT22;9340;48.756;9.226;2023-12-29T14:16:50;13.00;99.90
18426;DHT22;9340;48.756;9.226;2023-12-29T14:19:17;13.00;99.90
18426;DHT22;9340;48.756;9.226;2023-12-29T14:21:45;13.10;99.90
18426;DHT22;9340;48.756;9.226;2023-12-29T14:24:13;13.00;99.90
18426;DHT22;9340;48.756;9.226;2023-12-29T14:26:41;13.00;99.90
18426;DHT22;9340;48.756;9.226;2023-12-29T14:29:11;13.00;99.90
18426;DHT22;9340;48.756;9.226;2023-12-29T14:31:39;13.00;99.90
18426;DHT22;9340;48.756;9.226;2023-12-29T14:34:07;13.00;99.90
18426;DHT22;9340;48.756;9.226;2023-12-29T14:36:34;13.00;99.90
18426;DHT22;9340;48.756;9.226;2023-12-29T14:39:02;12.90;99.90
18426;DHT22;9340;48.756;9.226;2023-12-29T14:41:29;12.80;99.90
18426;DHT22;9340;48.756;9.226;2023-12-29T14:43:56;12.90;99.90
18426;DHT22;9340;48.756;9.226;2023-12-29T14:46:24;12.80;99.90
18426;DHT22;9340;48.756;9.226;2023-12-29T14:48:51;12.70;99.90
18426;DHT22;9340;48.756;9.226;2023-12-29T14:51:18;12.70;99.90
18426;DHT22;9340;48.756;9.226;2023-12-29T14:53:45;12.60;99.90
18426;DHT22;9340;48.756;9.226;2023-12-29T14:56:13;12.60;99.90
18426;DHT22;9340;48.756;9.226;2023-12-29T14:58:41;12.60;99.90
18426;DHT22;9340;48.756;9.226;2023-12-29T15:01:08;12.60;99.90
18426;DHT22;9340;48.756;9.226;2023-12-29T15:03:37;12.60;99.90
18426;DHT22;9340;48.756;9.226;2023-12-29T15:06:04;12.60;99.90
18426;DHT22;9340;48.756;9.226;2023-12-29T15:08:31;12.50;99.90
18426;DHT22;9340;48.756;9.226;2023-12-29T15:11:00;12.50;99.90
18426;DHT22;9340;48.756;9.226;2023-12-29T15:13:27;12.50;99.90
18426;DHT22;9340;48.756;9.226;2023-12-29T15:15:55;12.40;99.90
18426;DHT22;9340;48.756;9.226;2023-12-29T15:18:22;12.40;99.90
18426;DHT22;9340;48.756;9.226;2023-12-29T15:20:50;12.30;99.90
18426;DHT22;9340;48.756;9.226;2023-12-29T15:23:17;12.30;99.90
18426;DHT22;9340;48.756;9.226;2023-12-29T15:25:44;12.20;99.90
18426;DHT22;9340;48.756;9.226;2023-12-29T15:28:10;12.10;99.90
18426;DHT22;9340;48.756;9.226;2023-12-29T15:30:37;12.00;99.90
18426;DHT22;9340;48.756;9.226;2023-12-29T15:33:04;11.90;99.90
18426;DHT22;9340;48.756;9.226;2023-12-29T15:35:31;11.80;99.90
18426;DHT22;9340;48.756;9.226;2023-12-29T15:37:59;11.70;99.90
18426;DHT22;9340;48.756;9.226;2023-12-29T15:40:25;11.60;99.90
18426;DHT22;9340;48.756;9.226;2023-12-29T15:42:52;11.60;99.90
18426;DHT22;9340;48.756;9.226;2023-12-29T15:45:19;11.60;99.90
18426;DHT22;9340;48.756;9.226;2023-12-29T15:47:46;11.50;99.90
18426;DHT22;9340;48.756;9.226;2023-12-29T15:50:13;11.50;99.90
18426;DHT22;9340;48.756;9.226;2023-12-29T15:52:40;11.50;99.90
18426;DHT22;9340;48.756;9.226;2023-12-29T15:55:09;11.50;99.90
18426;DHT22;9340;48.756;9.226;2023-12-29T15:57:35;11.50;99.90